sensor_id;sensor_type;location;lat;lon;timestamp;temperature;humidity
31819;DHT22;18384;48.860;9.188;2024-01-25T00:02:25;10.80;97.00
31819;DHT22;18384;48.860;9.188;2024-01-25T00:04:51;10.80;97.10
31819;DHT22;18384;48.860;9.188;2024-01-25T00:07:17;10.90;97.20
31819;DHT22;18384;48.860;9.188;2024-01-25T00:09:43;10.80;97.20
31819;DHT22;18384;48.860;9.188;2024-01-25T00:12:09;10.80;97.20
31819;DHT22;18384;48.860;9.188;2024-01-25T00:14:36;10.90;97.20
31819;DHT22;18384;48.860;9.188;2024-01-25T00:17:02;10.80;97.20
31819;DHT22;18384;48.860;9.188;2024-01-25T00:19:28;10.80;97.30
31819;DHT22;18384;48.860;9.188;2024-01-25T00:21:54;10.80;97.20
31819;DHT22;18384;48.860;9.188;2024-01-25T00:24:20;10.90;97.30
31819;DHT22;18384;48.860;9.188;2024-01-25T00:26:46;10.90;97.30
31819;DHT22;18384;48.860;9.188;2024-01-25T00:29:12;10.90;97.30
31819;DHT22;18384;48.860;9.188;2024-01-25T00:31:38;10.90;97.20
31819;DHT22;18384;48.860;9.188;2024-01-25T00:34:05;10.90;97.20
31819;DHT22;18384;48.860;9.188;2024-01-25T00:36:31;10.90;97.20
31819;DHT22;18384;48.860;9.188;2024-01-25T00:38:57;10.90;97.20
31819;DHT22;18384;48.860;9.188;2024-01-25T00:41:24;10.90;97.30
31819;DHT22;18384;48.860;9.188;2024-01-25T00:43:50;10.90;97.40
31819;DHT22;18384;48.860;9.188;2024-01-25T00:46:17;10.90;97.40
31819;DHT22;18384;48.860;9.188;2024-01-25T00:48:43;10.90;97.50
31819;DHT22;18384;48.860;9.188;2024-01-25T00:51:11;10.90;97.50
31819;DHT22;18384;48.860;9.188;2024-01-25T00:53:41;10.90;97.60
31819;DHT22;18384;48.860;9.188;2024-01-25T00:56:09;10.90;97.70
31819;DHT22;18384;48.860;9.188;2024-01-25T00:58:36;10.90;97.70
31819;DHT22;18384;48.860;9.188;2024-01-25T01:01:03;11.00;97.70
31819;DHT22;18384;48.860;9.188;2024-01-25T01:03:29;11.00;97.70
31819;DHT22;18384;48.860;9.188;2024-01-25T01:05:56;11.00;97.80
31819;DHT22;18384;48.860;9.188;2024-01-25T01:08:23;11.00;97.90
31819;DHT22;18384;48.860;9.188;2024-01-25T01:10:50;11.00;97.90
31819;DHT22;18384;48.860;9.188;2024-01-25T01:13:16;11.00;97.90
31819;DHT22;18384;48.860;9.188;2024-01-25T01:15:42;10.90;98.00
31819;DHT22;18384;48.860;9.188;2024-01-25T01:18:08;10.90;98.00
31819;DHT22;18384;48.860;9.188;2024-01-25T01:20:34;10.90;98.10
31819;DHT22;18384;48.860;9.188;2024-01-25T01:23:00;10.90;98.20
31819;DHT22;18384;48.860;9.188;2024-01-25T01:25:26;10.90;98.30
31819;DHT22;18384;48.860;9.188;2024-01-25T01:27:52;10.90;98.10
31819;DHT22;18384;48.860;9.188;2024-01-25T01:30:19;10.90;98.20
31819;DHT22;18384;48.860;9.188;2024-01-25T01:32:45;10.90;98.30
31819;DHT22;18384;48.860;9.188;2024-01-25T01:35:11;10.90;98.10
31819;DHT22;18384;48.860;9.188;2024-01-25T01:37:37;10.90;98.20
31819;DHT22;18384;48.860;9.188;2024-01-25T01:40:04;10.90;98.20
31819;DHT22;18384;48.860;9.188;2024-01-25T01:42:31;11.00;98.10
31819;DHT22;18384;48.860;9.188;2024-01-25T01:44:59;10.90;98.10
31819;DHT22;18384;48.860;9.188;2024-01-25T01:47:25;10.80;98.10
31819;DHT22;18384;48.860;9.188;2024-01-25T01:49:52;10.90;98.20
31819;DHT22;18384;48.860;9.188;2024-01-25T01:52:18;10.90;98.10
31819;DHT22;18384;48.860;9.188;2024-01-25T01:54:46;10.90;98.00
31819;DHT22;18384;48.860;9.188;2024-01-25T01:57:13;10.90;97.90
31819;DHT22;18384;48.860;9.188;2024-01-25T01:59:39;10.90;97.90
31819;DHT22;18384;48.860;9.188;2024-01-25T02:02:05;10.90;98.00
31819;DHT22;18384;48.860;9.188;2024-01-25T02:04:32;10.90;97.90
31819;DHT22;18384;48.860;9.188;2024-01-25T02:06:58;10.90;98.20
31819;DHT22;18384;48.860;9.188;2024-01-25T02:09:24;10.90;98.00
31819;DHT22;18384;48.860;9.188;2024-01-25T02:12:03;10.90;98.00
31819;DHT22;18384;48.860;9.188;2024-01-25T02:14:33;10.90;97.90
31819;DHT22;18384;48.860;9.188;2024-01-25T02:16:59;10.80;97.90
31819;DHT22;18384;48.860;9.188;2024-01-25T02:19:25;10.80;97.90
31819;DHT22;18384;48.860;9.188;2024-01-25T02:21:54;10.80;98.00
31819;DHT22;18384;48.860;9.188;2024-01-25T02:24:21;10.80;98.00
31819;DHT22;18384;48.860;9.188;2024-01-25T02:26:47;10.80;98.00
31819;DHT22;18384;48.860;9.188;2024-01-25T02:29:13;10.80;97.90
31819;DHT22;18384;48.860;9.188;2024-01-25T02:31:39;10.80;97.90
31819;DHT22;18384;48.860;9.188;2024-01-25T02:34:06;10.90;97.80
31819;DHT22;18384;48.860;9.188;2024-01-25T02:36:32;10.80;97.80
31819;DHT22;18384;48.860;9.188;2024-01-25T02:38:58;10.90;97.70
31819;DHT22;18384;48.860;9.188;2024-01-25T02:41:24;10.90;97.70
31819;DHT22;18384;48.860;9.188;2024-01-25T02:43:50;10.80;97.80
31819;DHT22;18384;48.860;9.188;2024-01-25T02:46:16;10.80;97.80
31819;DHT22;18384;48.860;9.188;2024-01-25T02:48:42;10.70;97.80
31819;DHT22;18384;48.860;9.188;2024-01-25T02:51:08;10.70;97.80
31819;DHT22;18384;48.860;9.188;2024-01-25T02:53:34;10.70;97.70
31819;DHT22;18384;48.860;9.188;2024-01-25T02:56:01;10.80;97.90
31819;DHT22;18384;48.860;9.188;2024-01-25T02:58:27;10.80;97.80
31819;DHT22;18384;48.860;9.188;2024-01-25T03:00:53;10.80;97.80
31819;DHT22;18384;48.860;9.188;2024-01-25T03:03:19;10.80;97.70
31819;DHT22;18384;48.860;9.188;2024-01-25T03:05:45;10.70;97.70
31819;DHT22;18384;48.860;9.188;2024-01-25T03:08:11;10.70;97.80
31819;DHT22;18384;48.860;9.188;2024-01-25T03:10:37;10.70;97.80
31819;DHT22;18384;48.860;9.188;2024-01-25T03:13:03;10.70;97.80
31819;DHT22;18384;48.860;9.188;2024-01-25T03:15:30;10.70;97.80
31819;DHT22;18384;48.860;9.188;2024-01-25T03:17:56;10.70;97.90
31819;DHT22;18384;48.860;9.188;2024-01-25T03:20:22;10.70;97.90
31819;DHT22;18384;48.860;9.188;2024-01-25T03:22:48;10.70;98.00
31819;DHT22;18384;48.860;9.188;2024-01-25T03:25:14;10.70;98.10
31819;DHT22;18384;48.860;9.188;2024-01-25T03:27:40;10.70;98.00
31819;DHT22;18384;48.860;9.188;2024-01-25T03:30:07;10.70;98.00
31819;DHT22;18384;48.860;9.188;2024-01-25T03:32:34;10.70;98.00
31819;DHT22;18384;48.860;9.188;2024-01-25T03:35:00;10.70;98.00
31819;DHT22;18384;48.860;9.188;2024-01-25T03:37:26;10.70;98.00
31819;DHT22;18384;48.860;9.188;2024-01-25T03:39:52;10.70;98.00
31819;DHT22;18384;48.860;9.188;2024-01-25T03:42:18;10.70;98.00
31819;DHT22;18384;48.860;9.188;2024-01-25T03:44:45;10.60;98.10
31819;DHT22;18384;48.860;9.188;2024-01-25T03:47:11;10.70;98.10
31819;DHT22;18384;48.860;9.188;2024-01-25T03:49:37;10.70;97.90
31819;DHT22;18384;48.860;9.188;2024-01-25T03:52:04;10.60;98.10
31819;DHT22;18384;48.860;9.188;2024-01-25T03:54:31;10.60;98.10
31819;DHT22;18384;48.860;9.188;2024-01-25T03:56:57;10.60;98.30
31819;DHT22;18384;48.860;9.188;2024-01-25T03:59:23;10.60;97.90
31819;DHT22;18384;48.860;9.188;2024-01-25T04:01:49;10.60;98.00
31819;DHT22;18384;48.860;9.188;2024-01-25T04:04:15;10.60;97.90
31819;DHT22;18384;48.860;9.188;2024-01-25T04:06:42;10.60;97.90
31819;DHT22;18384;48.860;9.188;2024-01-25T04:09:11;10.60;97.90
31819;DHT22;18384;48.860;9.188;2024-01-25T04:11:38;10.60;97.80
31819;DHT22;18384;48.860;9.188;2024-01-25T04:14:05;10.60;97.90
31819;DHT22;18384;48.860;9.188;2024-01-25T04:16:34;10.60;97.80
31819;DHT22;18384;48.860;9.188;2024-01-25T04:19:01;10.50;97.80
31819;DHT22;18384;48.860;9.188;2024-01-25T04:21:27;10.50;97.70
31819;DHT22;18384;48.860;9.188;2024-01-25T04:23:53;10.50;97.70
31819;DHT22;18384;48.860;9.188;2024-01-25T04:26:19;10.50;97.60
31819;DHT22;18384;48.860;9.188;2024-01-25T04:28:45;10.40;97.70
31819;DHT22;18384;48.860;9.188;2024-01-25T04:31:11;10.40;97.70
31819;DHT22;18384;48.860;9.188;2024-01-25T04:33:38;10.40;97.60
31819;DHT22;18384;48.860;9.188;2024-01-25T04:36:05;10.40;97.60
31819;DHT22;18384;48.860;9.188;2024-01-25T04:38:32;10.40;97.70
31819;DHT22;18384;48.860;9.188;2024-01-25T04:40:58;10.40;97.70
31819;DHT22;18384;48.860;9.188;2024-01-25T04:43:24;10.30;97.60
31819;DHT22;18384;48.860;9.188;2024-01-25T04:45:50;10.30;97.50
31819;DHT22;18384;48.860;9.188;2024-01-25T04:48:16;10.40;97.50
31819;DHT22;18384;48.860;9.188;2024-01-25T04:50:42;10.40;97.60
31819;DHT22;18384;48.860;9.188;2024-01-25T04:53:08;10.30;97.50
31819;DHT22;18384;48.860;9.188;2024-01-25T04:55:34;10.30;97.40
31819;DHT22;18384;48.860;9.188;2024-01-25T04:58:00;10.30;97.40
31819;DHT22;18384;48.860;9.188;2024-01-25T05:00:27;10.20;97.50
31819;DHT22;18384;48.860;9.188;2024-01-25T05:02:53;10.10;97.50
31819;DHT22;18384;48.860;9.188;2024-01-25T05:05:19;10.10;97.50
31819;DHT22;18384;48.860;9.188;2024-01-25T05:07:46;10.00;97.60
31819;DHT22;18384;48.860;9.188;2024-01-25T05:10:12;10.00;97.50
31819;DHT22;18384;48.860;9.188;2024-01-25T05:12:38;9.90;97.50
31819;DHT22;18384;48.860;9.188;2024-01-25T05:15:04;9.90;97.50
31819;DHT22;18384;48.860;9.188;2024-01-25T05:17:31;9.70;97.40
31819;DHT22;18384;48.860;9.188;2024-01-25T05:19:57;9.70;97.50
31819;DHT22;18384;48.860;9.188;2024-01-25T05:22:23;9.70;97.40
31819;DHT22;18384;48.860;9.188;2024-01-25T05:24:49;9.60;97.40
31819;DHT22;18384;48.860;9.188;2024-01-25T05:27:15;9.60;97.40
31819;DHT22;18384;48.860;9.188;2024-01-25T05:29:41;9.60;97.50
31819;DHT22;18384;48.860;9.188;2024-01-25T05:32:07;9.50;97.60
31819;DHT22;18384;48.860;9.188;2024-01-25T05:34:34;9.50;97.60
31819;DHT22;18384;48.860;9.188;2024-01-25T05:37:00;9.50;97.60
31819;DHT22;18384;48.860;9.188;2024-01-25T05:39:26;9.50;97.70
31819;DHT22;18384;48.860;9.188;2024-01-25T05:41:52;9.50;97.80
31819;DHT22;18384;48.860;9.188;2024-01-25T05:44:18;9.40;97.90
31819;DHT22;18384;48.860;9.188;2024-01-25T05:46:44;9.40;97.80
31819;DHT22;18384;48.860;9.188;2024-01-25T05:49:10;9.40;97.80
31819;DHT22;18384;48.860;9.188;2024-01-25T05:51:36;9.40;97.90
31819;DHT22;18384;48.860;9.188;2024-01-25T05:54:02;9.30;97.80
31819;DHT22;18384;48.860;9.188;2024-01-25T05:56:29;9.30;97.80
31819;DHT22;18384;48.860;9.188;2024-01-25T05:58:55;9.30;97.80
31819;DHT22;18384;48.860;9.188;2024-01-25T06:01:21;9.30;97.80
31819;DHT22;18384;48.860;9.188;2024-01-25T06:03:47;9.30;97.70
31819;DHT22;18384;48.860;9.188;2024-01-25T06:06:13;9.20;97.70
31819;DHT22;18384;48.860;9.188;2024-01-25T06:08:39;9.20;97.70
31819;DHT22;18384;48.860;9.188;2024-01-25T06:11:05;9.20;97.70
31819;DHT22;18384;48.860;9.188;2024-01-25T06:13:32;9.20;97.70
31819;DHT22;18384;48.860;9.188;2024-01-25T06:15:58;9.20;97.70
31819;DHT22;18384;48.860;9.188;2024-01-25T06:18:25;9.10;97.70
31819;DHT22;18384;48.860;9.188;2024-01-25T06:20:52;9.10;97.70
31819;DHT22;18384;48.860;9.188;2024-01-25T06:23:18;9.10;97.60
31819;DHT22;18384;48.860;9.188;2024-01-25T06:25:44;9.10;97.70
31819;DHT22;18384;48.860;9.188;2024-01-25T06:28:10;9.10;97.70
31819;DHT22;18384;48.860;9.188;2024-01-25T06:30:36;9.10;97.60
31819;DHT22;18384;48.860;9.188;2024-01-25T06:33:02;9.10;97.70
31819;DHT22;18384;48.860;9.188;2024-01-25T06:35:28;9.10;97.70
31819;DHT22;18384;48.860;9.188;2024-01-25T06:37:54;9.10;97.70
31819;DHT22;18384;48.860;9.188;2024-01-25T06:40:21;9.00;97.60
31819;DHT22;18384;48.860;9.188;2024-01-25T06:42:47;9.00;98.00
31819;DHT22;18384;48.860;9.188;2024-01-25T06:45:13;9.10;98.20
31819;DHT22;18384;48.860;9.188;2024-01-25T06:47:39;9.00;98.30
31819;DHT22;18384;48.860;9.188;2024-01-25T06:50:06;9.00;98.40
31819;DHT22;18384;48.860;9.188;2024-01-25T06:52:33;9.00;98.70
31819;DHT22;18384;48.860;9.188;2024-01-25T06:54:59;9.00;98.70
31819;DHT22;18384;48.860;9.188;2024-01-25T06:57:25;9.00;98.80
31819;DHT22;18384;48.860;9.188;2024-01-25T06:59:51;9.00;98.70
31819;DHT22;18384;48.860;9.188;2024-01-25T07:02:17;9.10;98.80
31819;DHT22;18384;48.860;9.188;2024-01-25T07:04:43;9.10;98.70
31819;DHT22;18384;48.860;9.188;2024-01-25T07:07:10;9.00;98.70
31819;DHT22;18384;48.860;9.188;2024-01-25T07:09:36;8.90;98.70
31819;DHT22;18384;48.860;9.188;2024-01-25T07:12:02;9.00;98.70
31819;DHT22;18384;48.860;9.188;2024-01-25T07:14:28;9.00;98.70
31819;DHT22;18384;48.860;9.188;2024-01-25T07:16:54;9.00;98.80
31819;DHT22;18384;48.860;9.188;2024-01-25T07:19:20;8.90;98.60
31819;DHT22;18384;48.860;9.188;2024-01-25T07:21:46;8.90;98.70
31819;DHT22;18384;48.860;9.188;2024-01-25T07:24:12;8.90;98.60
31819;DHT22;18384;48.860;9.188;2024-01-25T07:26:38;8.90;98.70
31819;DHT22;18384;48.860;9.188;2024-01-25T07:29:05;8.80;98.70
31819;DHT22;18384;48.860;9.188;2024-01-25T07:31:31;8.80;98.80
31819;DHT22;18384;48.860;9.188;2024-01-25T07:33:57;8.80;98.90
31819;DHT22;18384;48.860;9.188;2024-01-25T07:36:23;8.80;99.10
31819;DHT22;18384;48.860;9.188;2024-01-25T07:38:49;8.90;99.20
31819;DHT22;18384;48.860;9.188;2024-01-25T07:41:16;8.90;99.10
31819;DHT22;18384;48.860;9.188;2024-01-25T07:43:42;8.90;99.10
31819;DHT22;18384;48.860;9.188;2024-01-25T07:46:08;8.90;99.10
31819;DHT22;18384;48.860;9.188;2024-01-25T07:48:35;9.00;99.10
31819;DHT22;18384;48.860;9.188;2024-01-25T07:51:01;9.00;98.90
31819;DHT22;18384;48.860;9.188;2024-01-25T07:53:28;9.00;99.00
31819;DHT22;18384;48.860;9.188;2024-01-25T07:55:54;9.70;99.10
31819;DHT22;18384;48.860;9.188;2024-01-25T07:58:20;9.10;98.90
31819;DHT22;18384;48.860;9.188;2024-01-25T08:00:46;9.10;98.70
31819;DHT22;18384;48.860;9.188;2024-01-25T08:03:14;9.10;98.70
31819;DHT22;18384;48.860;9.188;2024-01-25T08:05:40;9.10;98.80
31819;DHT22;18384;48.860;9.188;2024-01-25T08:08:06;9.20;98.70
31819;DHT22;18384;48.860;9.188;2024-01-25T08:10:33;9.10;98.70
31819;DHT22;18384;48.860;9.188;2024-01-25T08:12:59;9.10;98.70
31819;DHT22;18384;48.860;9.188;2024-01-25T08:15:25;9.20;98.80
31819;DHT22;18384;48.860;9.188;2024-01-25T08:17:51;9.20;98.70
31819;DHT22;18384;48.860;9.188;2024-01-25T08:20:18;9.20;98.80
31819;DHT22;18384;48.860;9.188;2024-01-25T08:22:44;9.20;98.80
31819;DHT22;18384;48.860;9.188;2024-01-25T08:25:10;9.20;98.70
31819;DHT22;18384;48.860;9.188;2024-01-25T08:27:39;9.30;98.80
31819;DHT22;18384;48.860;9.188;2024-01-25T08:30:06;9.30;98.70
31819;DHT22;18384;48.860;9.188;2024-01-25T08:32:33;9.30;98.70
31819;DHT22;18384;48.860;9.188;2024-01-25T08:34:59;9.30;98.90
31819;DHT22;18384;48.860;9.188;2024-01-25T08:37:25;9.40;98.80
31819;DHT22;18384;48.860;9.188;2024-01-25T08:39:51;9.40;98.70
31819;DHT22;18384;48.860;9.188;2024-01-25T08:42:18;9.40;98.70
31819;DHT22;18384;48.860;9.188;2024-01-25T08:44:44;9.50;98.60
31819;DHT22;18384;48.860;9.188;2024-01-25T08:47:16;9.50;98.60
31819;DHT22;18384;48.860;9.188;2024-01-25T08:49:43;9.50;98.60
31819;DHT22;18384;48.860;9.188;2024-01-25T08:52:09;9.60;98.40
31819;DHT22;18384;48.860;9.188;2024-01-25T08:54:35;9.70;98.40
31819;DHT22;18384;48.860;9.188;2024-01-25T08:57:03;9.70;98.30
31819;DHT22;18384;48.860;9.188;2024-01-25T08:59:30;9.70;98.30
31819;DHT22;18384;48.860;9.188;2024-01-25T09:01:58;9.70;98.20
31819;DHT22;18384;48.860;9.188;2024-01-25T09:04:24;9.80;98.20
31819;DHT22;18384;48.860;9.188;2024-01-25T09:06:50;9.90;98.20
31819;DHT22;18384;48.860;9.188;2024-01-25T09:09:16;9.90;98.20
31819;DHT22;18384;48.860;9.188;2024-01-25T09:11:42;9.90;98.00
31819;DHT22;18384;48.860;9.188;2024-01-25T09:14:08;10.00;98.10
31819;DHT22;18384;48.860;9.188;2024-01-25T09:16:35;10.10;97.80
31819;DHT22;18384;48.860;9.188;2024-01-25T09:19:02;10.10;97.80
31819;DHT22;18384;48.860;9.188;2024-01-25T09:21:28;10.20;97.70
31819;DHT22;18384;48.860;9.188;2024-01-25T09:23:54;10.20;97.70
31819;DHT22;18384;48.860;9.188;2024-01-25T09:26:20;10.20;97.70
31819;DHT22;18384;48.860;9.188;2024-01-25T09:28:46;10.20;97.70
31819;DHT22;18384;48.860;9.188;2024-01-25T09:31:12;10.20;97.70
31819;DHT22;18384;48.860;9.188;2024-01-25T09:33:38;10.20;97.70
31819;DHT22;18384;48.860;9.188;2024-01-25T09:36:05;10.20;97.50
31819;DHT22;18384;48.860;9.188;2024-01-25T09:38:31;10.20;97.60
31819;DHT22;18384;48.860;9.188;2024-01-25T09:40:57;10.30;97.60
31819;DHT22;18384;48.860;9.188;2024-01-25T09:43:23;10.40;97.60
31819;DHT22;18384;48.860;9.188;2024-01-25T09:45:50;10.40;97.50
31819;DHT22;18384;48.860;9.188;2024-01-25T09:48:20;10.50;97.60
31819;DHT22;18384;48.860;9.188;2024-01-25T09:50:48;10.60;97.30
31819;DHT22;18384;48.860;9.188;2024-01-25T09:53:17;10.80;97.20
31819;DHT22;18384;48.860;9.188;2024-01-25T09:55:46;10.90;97.00
31819;DHT22;18384;48.860;9.188;2024-01-25T09:58:39;11.00;96.70
31819;DHT22;18384;48.860;9.188;2024-01-25T10:01:10;11.10;96.70
31819;DHT22;18384;48.860;9.188;2024-01-25T10:03:38;11.10;96.50
31819;DHT22;18384;48.860;9.188;2024-01-25T10:06:13;11.20;96.60
31819;DHT22;18384;48.860;9.188;2024-01-25T10:08:39;11.20;96.50
31819;DHT22;18384;48.860;9.188;2024-01-25T10:11:06;11.30;96.30
31819;DHT22;18384;48.860;9.188;2024-01-25T10:13:40;11.40;96.30
31819;DHT22;18384;48.860;9.188;2024-01-25T10:16:15;11.40;96.00
31819;DHT22;18384;48.860;9.188;2024-01-25T10:18:47;11.50;96.00
31819;DHT22;18384;48.860;9.188;2024-01-25T10:21:13;11.70;95.90
31819;DHT22;18384;48.860;9.188;2024-01-25T10:23:40;11.80;95.70
31819;DHT22;18384;48.860;9.188;2024-01-25T10:26:09;11.90;95.00
31819;DHT22;18384;48.860;9.188;2024-01-25T10:28:36;12.00;94.60
31819;DHT22;18384;48.860;9.188;2024-01-25T10:31:02;12.00;94.30
31819;DHT22;18384;48.860;9.188;2024-01-25T10:33:32;12.00;94.80
31819;DHT22;18384;48.860;9.188;2024-01-25T10:36:00;12.00;94.60
31819;DHT22;18384;48.860;9.188;2024-01-25T10:38:33;12.00;94.40
31819;DHT22;18384;48.860;9.188;2024-01-25T10:41:04;12.00;94.40
31819;DHT22;18384;48.860;9.188;2024-01-25T10:43:33;12.00;94.40
31819;DHT22;18384;48.860;9.188;2024-01-25T10:45:59;11.90;94.30
31819;DHT22;18384;48.860;9.188;2024-01-25T10:48:25;12.00;95.00
31819;DHT22;18384;48.860;9.188;2024-01-25T10:50:53;12.10;94.80
31819;DHT22;18384;48.860;9.188;2024-01-25T10:53:20;12.20;94.00
31819;DHT22;18384;48.860;9.188;2024-01-25T10:55:47;12.30;93.90
31819;DHT22;18384;48.860;9.188;2024-01-25T10:58:13;12.40;93.80
31819;DHT22;18384;48.860;9.188;2024-01-25T11:00:40;12.40;93.70
31819;DHT22;18384;48.860;9.188;2024-01-25T11:03:07;12.40;94.10
31819;DHT22;18384;48.860;9.188;2024-01-25T11:05:33;12.30;93.90
31819;DHT22;18384;48.860;9.188;2024-01-25T11:07:59;12.20;93.60
31819;DHT22;18384;48.860;9.188;2024-01-25T11:10:25;12.10;93.70
31819;DHT22;18384;48.860;9.188;2024-01-25T11:12:56;12.00;94.00
31819;DHT22;18384;48.860;9.188;2024-01-25T11:15:29;12.00;93.90
31819;DHT22;18384;48.860;9.188;2024-01-25T11:17:56;12.00;94.00
31819;DHT22;18384;48.860;9.188;2024-01-25T11:20:23;12.00;94.20
31819;DHT22;18384;48.860;9.188;2024-01-25T11:23:01;11.90;94.20
31819;DHT22;18384;48.860;9.188;2024-01-25T11:25:28;11.80;94.20
31819;DHT22;18384;48.860;9.188;2024-01-25T11:27:55;11.80;94.50
31819;DHT22;18384;48.860;9.188;2024-01-25T11:30:21;11.70;94.80
31819;DHT22;18384;48.860;9.188;2024-01-25T11:32:47;11.70;94.80
31819;DHT22;18384;48.860;9.188;2024-01-25T11:35:14;11.70;94.90
31819;DHT22;18384;48.860;9.188;2024-01-25T11:37:42;11.80;94.50
31819;DHT22;18384;48.860;9.188;2024-01-25T11:40:10;11.80;94.40
31819;DHT22;18384;48.860;9.188;2024-01-25T11:42:37;11.90;94.50
31819;DHT22;18384;48.860;9.188;2024-01-25T11:45:04;11.80;94.40
31819;DHT22;18384;48.860;9.188;2024-01-25T11:47:31;11.80;94.70
31819;DHT22;18384;48.860;9.188;2024-01-25T11:49:57;11.90;94.50
31819;DHT22;18384;48.860;9.188;2024-01-25T11:52:23;11.90;94.40
31819;DHT22;18384;48.860;9.188;2024-01-25T11:54:49;12.00;94.30
31819;DHT22;18384;48.860;9.188;2024-01-25T11:57:15;11.90;94.30
31819;DHT22;18384;48.860;9.188;2024-01-25T11:59:41;11.90;94.30
31819;DHT22;18384;48.860;9.188;2024-01-25T12:02:06;11.90;94.10
31819;DHT22;18384;48.860;9.188;2024-01-25T12:04:33;11.80;94.10
31819;DHT22;18384;48.860;9.188;2024-01-25T12:06:59;11.70;94.40
31819;DHT22;18384;48.860;9.188;2024-01-25T12:09:25;11.70;94.50
31819;DHT22;18384;48.860;9.188;2024-01-25T12:11:51;11.70;94.50
31819;DHT22;18384;48.860;9.188;2024-01-25T12:14:17;11.60;93.80
31819;DHT22;18384;48.860;9.188;2024-01-25T12:16:43;11.70;93.70
31819;DHT22;18384;48.860;9.188;2024-01-25T12:19:09;11.70;93.50
31819;DHT22;18384;48.860;9.188;2024-01-25T12:21:35;11.80;93.50
31819;DHT22;18384;48.860;9.188;2024-01-25T12:24:01;11.90;93.30
31819;DHT22;18384;48.860;9.188;2024-01-25T12:26:28;12.00;93.40
31819;DHT22;18384;48.860;9.188;2024-01-25T12:28:54;12.10;93.40
31819;DHT22;18384;48.860;9.188;2024-01-25T12:31:20;12.20;93.00
31819;DHT22;18384;48.860;9.188;2024-01-25T12:33:46;12.30;92.80
31819;DHT22;18384;48.860;9.188;2024-01-25T12:36:12;12.30;92.30
31819;DHT22;18384;48.860;9.188;2024-01-25T12:38:38;12.40;92.60
31819;DHT22;18384;48.860;9.188;2024-01-25T12:41:04;12.40;92.60
31819;DHT22;18384;48.860;9.188;2024-01-25T12:43:30;12.30;92.40
31819;DHT22;18384;48.860;9.188;2024-01-25T12:45:56;12.40;92.40
31819;DHT22;18384;48.860;9.188;2024-01-25T12:48:22;12.40;91.90
31819;DHT22;18384;48.860;9.188;2024-01-25T12:50:48;12.20;91.80
31819;DHT22;18384;48.860;9.188;2024-01-25T12:53:14;12.00;92.00
31819;DHT22;18384;48.860;9.188;2024-01-25T12:55:40;12.00;92.50
31819;DHT22;18384;48.860;9.188;2024-01-25T12:58:06;11.90;92.50
31819;DHT22;18384;48.860;9.188;2024-01-25T13:00:32;12.00;92.70
31819;DHT22;18384;48.860;9.188;2024-01-25T13:02:58;11.90;92.70
31819;DHT22;18384;48.860;9.188;2024-01-25T13:05:27;11.80;92.70
31819;DHT22;18384;48.860;9.188;2024-01-25T13:07:53;11.70;93.00
31819;DHT22;18384;48.860;9.188;2024-01-25T13:10:19;11.70;93.00
31819;DHT22;18384;48.860;9.188;2024-01-25T13:12:45;11.70;93.30
31819;DHT22;18384;48.860;9.188;2024-01-25T13:15:11;11.70;93.60
31819;DHT22;18384;48.860;9.188;2024-01-25T13:17:37;11.60;93.30
31819;DHT22;18384;48.860;9.188;2024-01-25T13:20:03;11.60;93.00
31819;DHT22;18384;48.860;9.188;2024-01-25T13:22:32;11.60;93.20
31819;DHT22;18384;48.860;9.188;2024-01-25T13:24:59;11.60;93.50
31819;DHT22;18384;48.860;9.188;2024-01-25T13:27:25;11.60;93.50
31819;DHT22;18384;48.860;9.188;2024-01-25T13:29:52;11.60;93.50
31819;DHT22;18384;48.860;9.188;2024-01-25T13:32:18;11.70;93.40
31819;DHT22;18384;48.860;9.188;2024-01-25T13:34:44;11.60;93.60
31819;DHT22;18384;48.860;9.188;2024-01-25T13:37:10;11.70;93.70
31819;DHT22;18384;48.860;9.188;2024-01-25T13:39:36;11.70;93.40
31819;DHT22;18384;48.860;9.188;2024-01-25T13:42:02;11.70;93.40
31819;DHT22;18384;48.860;9.188;2024-01-25T13:44:28;11.70;93.50
31819;DHT22;18384;48.860;9.188;2024-01-25T13:46:54;11.70;93.40
31819;DHT22;18384;48.860;9.188;2024-01-25T13:49:21;11.70;93.50
31819;DHT22;18384;48.860;9.188;2024-01-25T13:51:47;11.70;93.60
31819;DHT22;18384;48.860;9.188;2024-01-25T13:54:13;11.70;93.60
31819;DHT22;18384;48.860;9.188;2024-01-25T13:56:39;11.70;93.50
31819;DHT22;18384;48.860;9.188;2024-01-25T13:59:05;11.70;93.70
31819;DHT22;18384;48.860;9.188;2024-01-25T14:01:31;11.70;93.50
31819;DHT22;18384;48.860;9.188;2024-01-25T14:03:57;11.60;93.60
31819;DHT22;18384;48.860;9.188;2024-01-25T14:06:24;11.70;93.50
31819;DHT22;18384;48.860;9.188;2024-01-25T14:08:50;11.70;93.80
31819;DHT22;18384;48.860;9.188;2024-01-25T14:11:17;11.70;93.60
31819;DHT22;18384;48.860;9.188;2024-01-25T14:13:43;11.70;93.50
31819;DHT22;18384;48.860;9.188;2024-01-25T14:16:09;11.80;93.40
31819;DHT22;18384;48.860;9.188;2024-01-25T14:18:39;11.80;93.20
31819;DHT22;18384;48.860;9.188;2024-01-25T14:21:05;11.90;93.10
31819;DHT22;18384;48.860;9.188;2024-01-25T14:23:31;11.90;93.30
31819;DHT22;18384;48.860;9.188;2024-01-25T14:25:57;11.90;93.30
31819;DHT22;18384;48.860;9.188;2024-01-25T14:28:23;11.80;93.40
31819;DHT22;18384;48.860;9.188;2024-01-25T14:30:49;11.80;93.40
31819;DHT22;18384;48.860;9.188;2024-01-25T14:33:15;11.80;93.60
31819;DHT22;18384;48.860;9.188;2024-01-25T14:35:41;11.80;93.40
31819;DHT22;18384;48.860;9.188;2024-01-25T14:38:07;11.70;93.70
31819;DHT22;18384;48.860;9.188;2024-01-25T14:40:33;11.70;93.70
31819;DHT22;18384;48.860;9.188;2024-01-25T14:42:59;11.70;93.80
31819;DHT22;18384;48.860;9.188;2024-01-25T14:45:27;11.60;93.90
31819;DHT22;18384;48.860;9.188;2024-01-25T14:47:55;11.60;93.90
31819;DHT22;18384;48.860;9.188;2024-01-25T14:50:21;11.60;93.70
31819;DHT22;18384;48.860;9.188;2024-01-25T14:52:47;11.60;93.80
31819;DHT22;18384;48.860;9.188;2024-01-25T14:55:13;11.60;93.70
31819;DHT22;18384;48.860;9.188;2024-01-25T14:57:39;11.60;93.80
31819;DHT22;18384;48.860;9.188;2024-01-25T15:00:05;11.60;93.70
31819;DHT22;18384;48.860;9.188;2024-01-25T15:02:32;11.60;93.70
31819;DHT22;18384;48.860;9.188;2024-01-25T15:04:58;11.60;93.60
31819;DHT22;18384;48.860;9.188;2024-01-25T15:07:24;11.60;93.60
31819;DHT22;18384;48.860;9.188;2024-01-25T15:09:50;11.60;93.70
31819;DHT22;18384;48.860;9.188;2024-01-25T15:12:16;11.50;93.80
31819;DHT22;18384;48.860;9.188;2024-01-25T15:14:43;11.50;94.00
31819;DHT22;18384;48.860;9.188;2024-01-25T15:17:09;11.50;94.00
31819;DHT22;18384;48.860;9.188;2024-01-25T15:19:35;11.50;94.10
31819;DHT22;18384;48.860;9.188;2024-01-25T15:22:03;11.50;94.40
31819;DHT22;18384;48.860;9.188;2024-01-25T15:24:33;11.50;94.10
31819;DHT22;18384;48.860;9.188;2024-01-25T15:26:59;11.40;94.10
31819;DHT22;18384;48.860;9.188;2024-01-25T15:29:26;11.50;94.20
31819;DHT22;18384;48.860;9.188;2024-01-25T15:31:52;11.50;94.10